Česky Dansk Deutsch English Español Suomi Français Magyar Italiano Nederlands norsk Polski Português svenska Türkçe

 

Het Weer

Villacoublay (Frankrijk)

08:30, 23 agosto 2016 (GMT)

NWNNE
WE
SWSSE
Home            
Villacoublay Paris Met Center Paris-Orly Paris / Le Bourget Paris-Aeroport Charles De Gaulle Melun Creil Fafb Chartres Evreux Beauvais Toussus Le Noble Orleans Chateaudun Rouen Saint-Quentin Troyes Chalons-Vatry Reims Auxerre Abbeville Alencon Vittefleur / St. Vale Romorantin

Om een weerknop op uw website of weblog te plaatsen, copieer onderstaande code en plak die in uw pagina. In het eerste vakje staat HTML-code, in het tweede vakje UBB-code.


Add to Google

Details

Wind speed:2 bf, 6 kn, 3.1 m/s, 6.9 miles/h, 11.1 km/h
Wind direction:ENE, 060° - SSE, 150°
Visibilità totale:Maggiore di 10000 m, 10 km, 32800 ft, 6.2 miles
Clouds:CAVOC
Temperature:23°C, 73°F
Sensazione termica:24°C, 76°F
Temperatura di rugiada :15°C, 59°F
Pressione atmosferica:1025 hPa, 768.8 mmHg, 30.27 inHg, 1.012 atm
Umidità relativa:60.7 %
METAR:LFPV 230830Z AUTO 12006KT 060V150 CAVOK 23/15 Q1025

Snelkoppelingen

Actuele weersinformatie van de hele wereld. Voeg locaties toe met het plus (+) symbool. Deze snelkoppelingen kunnen worden toegevoegd aan Google.

Lid van de Technetium groep

website free tracking
StatCounter NetStat W3C Validator

28-09-2022 08:10:17
astro.technetium.be money.technetium.be phote.technetium.be tafeltennistafel.technetium.be www.ligfiets.net